createdAt,value
2023-01-12T00:05:08.687Z,61.19
2023-01-12T00:11:21.797Z,61.25
2023-01-12T00:17:24.393Z,61.70
2023-01-12T00:23:59.898Z,61.21
2023-01-12T00:30:19.124Z,61.47
2023-01-12T00:36:01.544Z,70.66
2023-01-12T00:41:52.384Z,58.66
2023-01-12T00:56:14.738Z,51.93
2023-01-12T01:01:30.564Z,52.97
2023-01-12T01:07:37.653Z,54.11
2023-01-12T01:13:41.487Z,55.17
2023-01-12T01:19:56.976Z,56.30
2023-01-12T01:26:04.350Z,57.34
2023-01-12T01:32:30.095Z,58.23
2023-01-12T01:38:35.705Z,59.17
2023-01-12T01:45:10.835Z,60.14
2023-01-12T01:51:34.958Z,60.94
2023-01-12T01:57:28.850Z,69.84
2023-01-12T02:03:44.114Z,58.11
2023-01-12T02:10:04.472Z,50.09
2023-01-12T02:16:16.730Z,52.07
2023-01-12T02:22:34.684Z,53.66
2023-01-12T02:28:42.321Z,54.39
2023-01-12T02:35:01.873Z,55.70
2023-01-12T02:41:16.745Z,56.73
2023-01-12T02:46:51.849Z,58.04
2023-01-12T02:56:51.334Z,60.08
2023-01-12T03:02:37.886Z,60.16
2023-01-12T03:08:58.785Z,60.92
2023-01-12T03:14:52.688Z,70.20
2023-01-12T03:20:36.455Z,57.64
2023-01-12T03:26:45.466Z,51.62
2023-01-12T03:32:24.776Z,52.76
2023-01-12T03:38:26.183Z,54.61
2023-01-12T03:44:37.849Z,55.79
2023-01-12T03:50:25.498Z,56.94
2023-01-12T03:56:37.928Z,58.08
2023-01-12T04:03:07.109Z,58.70
2023-01-12T04:09:23.263Z,59.64
2023-01-12T04:15:29.042Z,60.25
2023-01-12T04:21:44.252Z,61.24
2023-01-12T04:27:24.529Z,70.35
2023-01-12T04:33:32.657Z,60.71
2023-01-12T04:56:48.635Z,55.71
2023-01-12T05:02:35.609Z,56.16
2023-01-12T05:08:31.026Z,57.53
2023-01-12T05:14:34.391Z,58.55
2023-01-12T05:20:26.539Z,59.37
2023-01-12T05:26:55.065Z,59.91
2023-01-12T05:33:21.244Z,61.24
2023-01-12T05:39:43.090Z,70.91
2023-01-12T05:45:50.379Z,58.16
2023-01-12T05:51:44.366Z,51.52
2023-01-12T05:57:55.955Z,52.99
2023-01-12T06:04:04.625Z,55.10
2023-01-12T06:09:48.285Z,55.91
2023-01-12T06:15:53.138Z,57.50
2023-01-12T06:21:48.575Z,58.37
2023-01-12T06:27:22.291Z,59.68
2023-01-12T06:33:53.511Z,60.83
2023-01-12T06:46:48.443Z,56.38
2023-01-12T06:52:21.603Z,52.09
2023-01-12T06:58:28.665Z,53.32
2023-01-12T07:04:53.587Z,54.40
2023-01-12T07:10:52.713Z,55.67
2023-01-12T07:17:01.943Z,57.20
2023-01-12T07:23:03.023Z,58.19
2023-01-12T07:28:54.345Z,59.17
2023-01-12T07:34:30.851Z,60.14
2023-01-12T07:40:12.665Z,61.06
2023-01-12T07:46:00.330Z,69.64
2023-01-12T07:55:57.111Z,51.81
2023-01-12T08:02:02.495Z,52.33
2023-01-12T08:07:52.169Z,53.34
2023-01-12T08:14:00.470Z,55.24
2023-01-12T08:20:19.390Z,56.05
2023-01-12T08:26:22.645Z,57.12
2023-01-12T08:32:51.533Z,58.69
2023-01-12T08:38:21.673Z,59.03
2023-01-12T08:44:46.747Z,59.80
2023-01-12T10:06:01.914Z,60.22
2023-01-12T10:11:59.833Z,59.84
2023-01-12T10:18:22.780Z,59.68
2023-01-12T10:23:57.347Z,59.64
2023-01-12T10:29:03.871Z,59.68
2023-01-12T10:34:15.191Z,59.71
2023-01-12T10:39:45.735Z,59.52
2023-01-12T10:45:35.832Z,59.49
2023-01-12T10:56:41.873Z,57.62
2023-01-12T11:02:26.653Z,56.81
2023-01-12T11:07:30.232Z,56.66
2023-01-12T11:19:09.762Z,55.97
2023-01-12T11:24:26.171Z,55.80
2023-01-12T11:30:26.054Z,55.79
2023-01-12T11:36:28.653Z,56.10
2023-01-12T11:42:44.096Z,54.85
2023-01-12T12:01:43.883Z,53.40
2023-01-12T12:07:22.929Z,52.75
2023-01-12T12:14:18.371Z,52.71
2023-01-12T12:20:44.118Z,53.17
2023-01-12T12:26:49.831Z,53.21
2023-01-12T12:32:37.804Z,52.77
2023-01-12T12:39:15.878Z,53.04
2023-01-12T12:45:36.985Z,53.03
2023-01-12T12:51:28.673Z,52.54
2023-01-12T12:57:25.190Z,52.43
2023-01-12T13:03:40.582Z,52.25
2023-01-12T13:09:50.678Z,51.87
2023-01-12T13:15:56.866Z,51.72
2023-01-12T13:22:01.162Z,51.36
2023-01-12T13:28:21.356Z,51.60
2023-01-12T13:34:34.863Z,51.70
2023-01-12T13:40:55.668Z,51.16
2023-01-12T13:47:23.506Z,50.88
2023-01-12T13:53:48.089Z,51.04
2023-01-12T13:59:35.046Z,51.20
2023-01-12T14:05:10.359Z,51.29
2023-01-12T14:11:38.898Z,51.03
2023-01-12T14:17:41.356Z,51.45
2023-01-12T14:24:01.140Z,50.90
2023-01-12T14:29:30.327Z,50.52
2023-01-12T14:35:43.729Z,50.70
2023-01-12T14:41:36.476Z,51.12
2023-01-12T14:47:51.051Z,50.66
2023-01-12T14:53:08.599Z,51.55
2023-01-12T14:59:18.627Z,51.37
2023-01-12T15:04:57.993Z,50.65
2023-01-12T15:10:59.234Z,51.37
2023-01-12T15:17:02.415Z,51.00
2023-01-12T15:23:07.162Z,51.04
2023-01-12T15:28:24.945Z,51.37
2023-01-12T15:34:36.841Z,51.51
2023-01-12T15:40:31.860Z,51.82
2023-01-12T15:46:14.601Z,51.88
2023-01-12T15:51:52.230Z,52.32
2023-01-12T15:57:12.000Z,52.76
2023-01-12T16:02:53.526Z,53.08
2023-01-12T16:08:49.371Z,52.94
2023-01-12T16:14:35.771Z,53.27
2023-01-12T16:20:02.784Z,53.27
2023-01-12T16:25:20.203Z,53.23
2023-01-12T16:31:25.684Z,53.31
2023-01-12T16:37:05.712Z,53.51
2023-01-12T16:43:23.278Z,53.78
2023-01-12T16:55:37.904Z,53.97
2023-01-12T17:01:29.135Z,53.80
2023-01-12T17:06:39.020Z,53.75
2023-01-12T17:12:15.125Z,53.74
2023-01-12T17:17:45.332Z,53.86
2023-01-12T17:23:53.044Z,53.91
2023-01-12T17:29:04.578Z,53.89
2023-01-12T17:34:16.864Z,53.94
2023-01-12T17:40:01.562Z,54.09
2023-01-12T17:45:53.412Z,54.33
2023-01-12T17:56:19.123Z,54.37
2023-01-12T18:02:18.135Z,54.56
2023-01-12T18:08:42.488Z,54.39
2023-01-12T18:15:00.020Z,54.58
2023-01-12T18:21:35.972Z,54.42
2023-01-12T18:28:16.607Z,54.47
2023-01-12T18:53:53.669Z,54.71
2023-01-12T18:59:28.506Z,54.65
2023-01-12T19:05:47.510Z,54.54
2023-01-12T19:12:19.299Z,55.64
2023-01-12T19:18:28.918Z,55.12
2023-01-12T19:24:40.424Z,55.27
2023-01-12T19:30:23.469Z,55.65
2023-01-12T19:36:14.075Z,55.77
2023-01-12T19:41:52.774Z,56.07
2023-01-12T19:47:45.775Z,56.84
2023-01-12T19:53:59.947Z,57.15
2023-01-12T20:00:15.542Z,57.10
2023-01-12T20:06:35.128Z,57.38
2023-01-12T20:12:04.579Z,57.89
2023-01-12T20:18:14.187Z,59.49
2023-01-12T20:24:18.254Z,58.66
2023-01-12T20:30:16.434Z,58.59
2023-01-12T20:36:03.419Z,58.88
2023-01-12T20:42:20.212Z,59.06
2023-01-12T20:54:43.117Z,60.06
2023-01-12T21:00:35.334Z,60.02
2023-01-12T21:06:33.464Z,60.11
2023-01-12T21:12:47.729Z,60.18
2023-01-12T21:19:12.031Z,60.16
2023-01-12T21:25:26.212Z,60.14
2023-01-12T21:31:49.784Z,60.08
2023-01-12T21:37:37.398Z,60.02
2023-01-12T21:43:44.475Z,59.97
2023-01-12T21:50:02.015Z,59.86
2023-01-12T21:56:22.429Z,59.78
2023-01-12T22:02:51.037Z,59.82
2023-01-12T22:09:09.178Z,59.77
2023-01-12T23:26:24.999Z,61.79
2023-01-12T23:32:51.649Z,61.86
2023-01-12T23:39:09.348Z,61.86
2023-01-12T23:45:45.079Z,67.04
2023-01-12T23:53:04.807Z,63.84
2023-01-12T23:58:45.939Z,50.93
